Makita — V2ET2 — position and weather

sailwx.info

Track history (hours):
 
Tides and Currents Weather Stations Pressure Air Temp Water Temp Dewpoint Dewpoint Depression Visibility Wind Speed Wind Dir Waves Ship Positions

Makita

Last reported at 2014-Nov-11 03:33 UTC. Time now 2014-Nov-23 14:50 UTC.
Position N 01°17' E 103°46'.
Warning: this ship's position is 12 days out of date.

Length 260 m; draft 11.7 m.

Type: Cargo ship. MMSI: 305543000.

Date/timePositionNaut miles runAvg speedWind from/ knotsBaromVisibWave heightAir tempDewpointWater temp
2014-Nov-11 03:33N 01°17' E 103°46'0 0.0
2014-Nov-11 02:29N 01°17' E 103°46'0 0.0
2014-Nov-11 01:29N 01°17' E 103°46'0 0.0
2014-Nov-11 00:32N 01°17' E 103°46'0 0.0
2014-Nov-10 23:29N 01°17' E 103°46'0 0.0
2014-Nov-10 22:29N 01°17' E 103°46'0 0.1
2014-Nov-10 21:29N 01°17' E 103°46'0 0.1
2014-Nov-10 20:29N 01°17' E 103°46'0 0.0
2014-Nov-10 19:29N 01°17' E 103°46'0 0.0
2014-Nov-10 18:29N 01°17' E 103°46'0 0.0
2014-Nov-10 17:29N 01°17' E 103°46'0 0.0
2014-Nov-10 16:29N 01°17' E 103°46'0 0.0
2014-Nov-10 15:32N 01°17' E 103°46'0 0.0
2014-Nov-10 14:29N 01°17' E 103°46'0 0.0
2014-Nov-10 13:17N 01°17' E 103°46'1 0.8
2014-Nov-10 12:32N 01°17' E 103°45'4 4.2
2014-Nov-10 11:33N 01°14' E 103°47'7 6.5
2014-Nov-10 10:33N 01°14' E 103°54'7 6.9
2014-Nov-10 09:33N 01°15' E 104°01'1211.9
2014-Nov-10 08:32N 01°17' E 104°13'  
2014-Nov-05 11:31N 22°20' E 114°08'0 0.2
2014-Nov-05 10:27N 22°20' E 114°08'0 0.0
2014-Nov-05 09:27N 22°20' E 114°08'0 0.0
2014-Nov-05 08:33N 22°20' E 114°08'0 0.0
2014-Nov-05 07:33N 22°20' E 114°08'0 0.0
2014-Nov-05 06:27N 22°20' E 114°08'0 0.0
2014-Nov-05 05:15N 22°20' E 114°08'0 0.0
2014-Nov-05 04:27N 22°20' E 114°08'0 0.0
2014-Nov-05 00:15N 22°20' E 114°08'1 1.3
2014-Nov-04 23:33N 22°19' E 114°07'11 8.5
2014-Nov-04 22:12N 22°22' E 113°55'5 8.0
2014-Nov-04 21:33N 22°27' E 113°54'0 0.2
2014-Nov-04 20:24N 22°27' E 113°54'0 0.0
2014-Nov-04 19:30N 22°27' E 113°54'0 0.0
2014-Nov-04 18:18N 22°27' E 113°54'0 0.0
2014-Nov-04 17:30N 22°27' E 113°54'0 0.0
2014-Nov-04 16:12N 22°27' E 113°54'0 0.0
2014-Nov-04 15:30N 22°27' E 113°54'0 0.0
2014-Nov-04 14:30N 22°27' E 113°54'0 0.0
2014-Nov-04 13:30N 22°27' E 113°54'0 0.0
2014-Nov-04 12:18N 22°27' E 113°54'0 0.0
2014-Nov-04 11:30N 22°27' E 113°54'0 0.0
2014-Nov-04 10:30N 22°27' E 113°54'0 0.0
2014-Nov-04 09:30N 22°27' E 113°54'3 3.3
2014-Nov-04 08:33N 22°24' E 113°54'11 9.3
2014-Nov-04 07:21N 22°20' E 114°05'24910.3
2014-Nov-03 07:10N 23°52' E 118°16'1012.8
2014-Nov-03 06:25N 23°58' E 118°24'1112.7
2014-Nov-03 05:33N 24°04' E 118°34'4314.4
2014-Nov-03 02:33N 24°31' E 119°12'34112.6
2014-Nov-01 23:29N 29°23' E 122°29'1612.4
2014-Nov-01 22:10N 29°39' E 122°24'813.2
2014-Nov-01 21:33N 29°45' E 122°18'9 9.4
2014-Nov-01 20:33N 29°52' E 122°11'7 5.5
2014-Nov-01 19:21N 29°53' E 122°03'0 0.0
2014-Nov-01 18:15N 29°53' E 122°03'0 0.0
2014-Nov-01 15:27N 29°53' E 122°03'0 0.0
2014-Nov-01 14:30N 29°53' E 122°03'0 0.0
2014-Nov-01 13:12N 29°53' E 122°03'0 0.0
2014-Nov-01 11:27N 29°53' E 122°03'0 0.0
2014-Nov-01 10:33N 29°53' E 122°03'0 0.0
2014-Nov-01 08:18N 29°53' E 122°03'0 0.0
2014-Nov-01 07:27N 29°53' E 122°03'0 0.0
2014-Nov-01 06:30N 29°53' E 122°03'0 0.0
2014-Nov-01 05:27N 29°53' E 122°03'0 0.3
2014-Nov-01 04:34N 29°54' E 122°03'7 7.1
2014-Nov-01 03:33N 29°52' E 122°11'  
Track history (hours):
 
Tides and Currents Weather Stations Pressure Air Temp Water Temp Dewpoint Dewpoint Depression Visibility Wind Speed Wind Dir Waves Ship Positions

Makita

Last reported at 2014-Nov-11 03:33 UTC. Time now 2014-Nov-23 14:50 UTC.
Position N 01°17' E 103°46'.
Warning: this ship's position is 12 days out of date.

Length 260 m; draft 11.7 m.

Type: Cargo ship. MMSI: 305543000.

Date/timePositionNaut miles runAvg speedWind from/ knotsBaromVisibWave heightAir tempDewpointWater temp
2014-Nov-11 03:33N 01°17' E 103°46'0 0.0
2014-Nov-11 02:29N 01°17' E 103°46'0 0.0
2014-Nov-11 01:29N 01°17' E 103°46'0 0.0
2014-Nov-11 00:32N 01°17' E 103°46'0 0.0
2014-Nov-10 23:29N 01°17' E 103°46'0 0.0
2014-Nov-10 22:29N 01°17' E 103°46'0 0.1
2014-Nov-10 21:29N 01°17' E 103°46'0 0.1
2014-Nov-10 20:29N 01°17' E 103°46'0 0.0
2014-Nov-10 19:29N 01°17' E 103°46'0 0.0
2014-Nov-10 18:29N 01°17' E 103°46'0 0.0
2014-Nov-10 17:29N 01°17' E 103°46'0 0.0
2014-Nov-10 16:29N 01°17' E 103°46'0 0.0
2014-Nov-10 15:32N 01°17' E 103°46'0 0.0
2014-Nov-10 14:29N 01°17' E 103°46'0 0.0
2014-Nov-10 13:17N 01°17' E 103°46'1 0.8
2014-Nov-10 12:32N 01°17' E 103°45'4 4.2
2014-Nov-10 11:33N 01°14' E 103°47'7 6.5
2014-Nov-10 10:33N 01°14' E 103°54'7 6.9
2014-Nov-10 09:33N 01°15' E 104°01'1211.9
2014-Nov-10 08:32N 01°17' E 104°13'  
2014-Nov-05 11:31N 22°20' E 114°08'0 0.2
2014-Nov-05 10:27N 22°20' E 114°08'0 0.0
2014-Nov-05 09:27N 22°20' E 114°08'0 0.0
2014-Nov-05 08:33N 22°20' E 114°08'0 0.0
2014-Nov-05 07:33N 22°20' E 114°08'0 0.0
2014-Nov-05 06:27N 22°20' E 114°08'0 0.0
2014-Nov-05 05:15N 22°20' E 114°08'0 0.0
2014-Nov-05 04:27N 22°20' E 114°08'0 0.0
2014-Nov-05 00:15N 22°20' E 114°08'1 1.3
2014-Nov-04 23:33N 22°19' E 114°07'11 8.5
2014-Nov-04 22:12N 22°22' E 113°55'5 8.0
2014-Nov-04 21:33N 22°27' E 113°54'0 0.2
2014-Nov-04 20:24N 22°27' E 113°54'0 0.0
2014-Nov-04 19:30N 22°27' E 113°54'0 0.0
2014-Nov-04 18:18N 22°27' E 113°54'0 0.0
2014-Nov-04 17:30N 22°27' E 113°54'0 0.0
2014-Nov-04 16:12N 22°27' E 113°54'0 0.0
2014-Nov-04 15:30N 22°27' E 113°54'0 0.0
2014-Nov-04 14:30N 22°27' E 113°54'0 0.0
2014-Nov-04 13:30N 22°27' E 113°54'0 0.0
2014-Nov-04 12:18N 22°27' E 113°54'0 0.0
2014-Nov-04 11:30N 22°27' E 113°54'0 0.0
2014-Nov-04 10:30N 22°27' E 113°54'0 0.0
2014-Nov-04 09:30N 22°27' E 113°54'3 3.3
2014-Nov-04 08:33N 22°24' E 113°54'11 9.3
2014-Nov-04 07:21N 22°20' E 114°05'24910.3
2014-Nov-03 07:10N 23°52' E 118°16'1012.8
2014-Nov-03 06:25N 23°58' E 118°24'1112.7
2014-Nov-03 05:33N 24°04' E 118°34'4314.4
2014-Nov-03 02:33N 24°31' E 119°12'34112.6
2014-Nov-01 23:29N 29°23' E 122°29'1612.4
2014-Nov-01 22:10N 29°39' E 122°24'813.2
2014-Nov-01 21:33N 29°45' E 122°18'9 9.4
2014-Nov-01 20:33N 29°52' E 122°11'7 5.5
2014-Nov-01 19:21N 29°53' E 122°03'0 0.0
2014-Nov-01 18:15N 29°53' E 122°03'0 0.0
2014-Nov-01 15:27N 29°53' E 122°03'0 0.0
2014-Nov-01 14:30N 29°53' E 122°03'0 0.0
2014-Nov-01 13:12N 29°53' E 122°03'0 0.0
2014-Nov-01 11:27N 29°53' E 122°03'0 0.0
2014-Nov-01 10:33N 29°53' E 122°03'0 0.0
2014-Nov-01 08:18N 29°53' E 122°03'0 0.0
2014-Nov-01 07:27N 29°53' E 122°03'0 0.0
2014-Nov-01 06:30N 29°53' E 122°03'0 0.0
2014-Nov-01 05:27N 29°53' E 122°03'0 0.3
2014-Nov-01 04:34N 29°54' E 122°03'7 7.1
2014-Nov-01 03:33N 29°52' E 122°11'  

Dump ship's entire track history